sensor_id;sensor_type;location;lat;lon;timestamp;P1;durP1;ratioP1;P2;durP2;ratioP2
59998;SDS011;45859;51.378;6.736;2023-12-28T00:00:09;1.43;;;0.80;;
59998;SDS011;45859;51.378;6.736;2023-12-28T00:02:35;1.57;;;0.87;;
59998;SDS011;45859;51.378;6.736;2023-12-28T00:05:01;2.07;;;0.87;;
59998;SDS011;45859;51.378;6.736;2023-12-28T00:07:27;1.20;;;0.60;;
59998;SDS011;45859;51.378;6.736;2023-12-28T00:09:53;4.17;;;2.27;;
59998;SDS011;45859;51.378;6.736;2023-12-28T00:12:19;3.43;;;2.20;;
59998;SDS011;45859;51.378;6.736;2023-12-28T00:14:47;1.77;;;1.07;;
59998;SDS011;45859;51.378;6.736;2023-12-28T00:17:13;1.27;;;0.80;;
59998;SDS011;45859;51.378;6.736;2023-12-28T00:19:40;0.73;;;0.43;;
59998;SDS011;45859;51.378;6.736;2023-12-28T00:22:06;2.97;;;1.97;;
59998;SDS011;45859;51.378;6.736;2023-12-28T00:24:32;2.87;;;2.23;;
59998;SDS011;45859;51.378;6.736;2023-12-28T00:26:58;2.43;;;1.97;;
59998;SDS011;45859;51.378;6.736;2023-12-28T00:29:23;2.90;;;2.40;;
59998;SDS011;45859;51.378;6.736;2023-12-28T00:31:49;3.00;;;2.20;;
59998;SDS011;45859;51.378;6.736;2023-12-28T00:34:15;3.03;;;2.37;;
59998;SDS011;45859;51.378;6.736;2023-12-28T00:36:41;3.80;;;2.00;;
59998;SDS011;45859;51.378;6.736;2023-12-28T00:39:07;5.00;;;2.00;;
59998;SDS011;45859;51.378;6.736;2023-12-28T00:41:33;3.13;;;2.30;;
59998;SDS011;45859;51.378;6.736;2023-12-28T00:43:59;3.40;;;2.23;;
59998;SDS011;45859;51.378;6.736;2023-12-28T00:46:26;4.27;;;1.70;;
59998;SDS011;45859;51.378;6.736;2023-12-28T00:48:52;0.93;;;0.60;;
59998;SDS011;45859;51.378;6.736;2023-12-28T00:51:19;2.37;;;0.73;;
59998;SDS011;45859;51.378;6.736;2023-12-28T00:53:46;2.20;;;1.90;;
59998;SDS011;45859;51.378;6.736;2023-12-28T00:56:11;1.90;;;1.70;;
59998;SDS011;45859;51.378;6.736;2023-12-28T00:58:41;2.93;;;2.00;;
59998;SDS011;45859;51.378;6.736;2023-12-28T01:01:08;2.53;;;2.07;;
59998;SDS011;45859;51.378;6.736;2023-12-28T01:03:34;1.20;;;1.10;;
59998;SDS011;45859;51.378;6.736;2023-12-28T01:06:00;1.00;;;0.83;;
59998;SDS011;45859;51.378;6.736;2023-12-28T01:08:26;0.80;;;0.50;;
59998;SDS011;45859;51.378;6.736;2023-12-28T01:10:53;1.27;;;0.93;;
59998;SDS011;45859;51.378;6.736;2023-12-28T01:13:19;2.60;;;1.93;;
59998;SDS011;45859;51.378;6.736;2023-12-28T01:15:45;2.80;;;0.60;;
59998;SDS011;45859;51.378;6.736;2023-12-28T01:18:11;0.50;;;0.37;;
59998;SDS011;45859;51.378;6.736;2023-12-28T01:20:37;2.37;;;1.83;;
59998;SDS011;45859;51.378;6.736;2023-12-28T01:23:03;0.73;;;0.53;;
59998;SDS011;45859;51.378;6.736;2023-12-28T01:25:29;1.10;;;0.90;;
59998;SDS011;45859;51.378;6.736;2023-12-28T01:27:55;0.40;;;0.40;;
59998;SDS011;45859;51.378;6.736;2023-12-28T01:30:21;2.13;;;1.90;;
59998;SDS011;45859;51.378;6.736;2023-12-28T01:32:47;3.17;;;1.90;;
59998;SDS011;45859;51.378;6.736;2023-12-28T01:35:13;4.00;;;2.13;;
59998;SDS011;45859;51.378;6.736;2023-12-28T01:37:38;1.00;;;0.87;;
59998;SDS011;45859;51.378;6.736;2023-12-28T01:40:04;1.10;;;0.50;;
59998;SDS011;45859;51.378;6.736;2023-12-28T01:42:31;2.73;;;2.10;;
59998;SDS011;45859;51.378;6.736;2023-12-28T01:44:57;3.80;;;2.10;;
59998;SDS011;45859;51.378;6.736;2023-12-28T01:47:23;2.47;;;2.00;;
59998;SDS011;45859;51.378;6.736;2023-12-28T01:49:50;2.37;;;1.77;;
59998;SDS011;45859;51.378;6.736;2023-12-28T01:52:16;2.60;;;2.00;;
59998;SDS011;45859;51.378;6.736;2023-12-28T01:54:43;3.27;;;2.40;;
59998;SDS011;45859;51.378;6.736;2023-12-28T01:57:09;2.70;;;2.20;;
59998;SDS011;45859;51.378;6.736;2023-12-28T01:59:36;3.70;;;2.17;;
59998;SDS011;45859;51.378;6.736;2023-12-28T02:02:02;2.93;;;2.10;;
59998;SDS011;45859;51.378;6.736;2023-12-28T02:04:28;0.40;;;0.40;;
59998;SDS011;45859;51.378;6.736;2023-12-28T02:06:56;3.40;;;1.93;;
59998;SDS011;45859;51.378;6.736;2023-12-28T02:09:22;2.43;;;1.93;;
59998;SDS011;45859;51.378;6.736;2023-12-28T02:11:48;2.93;;;2.20;;
59998;SDS011;45859;51.378;6.736;2023-12-28T02:14:15;3.17;;;2.20;;
59998;SDS011;45859;51.378;6.736;2023-12-28T02:16:50;2.97;;;2.10;;
59998;SDS011;45859;51.378;6.736;2023-12-28T02:19:53;3.03;;;1.90;;
59998;SDS011;45859;51.378;6.736;2023-12-28T02:22:12;2.77;;;2.10;;
59998;SDS011;45859;51.378;6.736;2023-12-28T02:27:44;3.63;;;2.10;;
59998;SDS011;45859;51.378;6.736;2023-12-28T02:30:11;2.40;;;2.20;;
59998;SDS011;45859;51.378;6.736;2023-12-28T02:38:08;3.47;;;2.40;;
59998;SDS011;45859;51.378;6.736;2023-12-28T02:40:41;3.37;;;2.20;;
59998;SDS011;45859;51.378;6.736;2023-12-28T02:43:09;4.47;;;2.13;;
59998;SDS011;45859;51.378;6.736;2023-12-28T02:45:36;3.60;;;2.10;;
59998;SDS011;45859;51.378;6.736;2023-12-28T02:48:02;7.33;;;0.80;;
59998;SDS011;45859;51.378;6.736;2023-12-28T02:50:29;5.10;;;2.17;;
59998;SDS011;45859;51.378;6.736;2023-12-28T02:52:55;2.70;;;2.20;;
59998;SDS011;45859;51.378;6.736;2023-12-28T02:55:21;3.13;;;2.20;;
59998;SDS011;45859;51.378;6.736;2023-12-28T02:57:49;2.23;;;0.93;;
59998;SDS011;45859;51.378;6.736;2023-12-28T03:00:15;1.37;;;0.90;;
59998;SDS011;45859;51.378;6.736;2023-12-28T03:02:41;5.40;;;2.53;;
59998;SDS011;45859;51.378;6.736;2023-12-28T03:05:08;2.40;;;2.20;;
59998;SDS011;45859;51.378;6.736;2023-12-28T03:07:34;2.37;;;0.93;;
59998;SDS011;45859;51.378;6.736;2023-12-28T03:10:00;4.23;;;2.20;;
59998;SDS011;45859;51.378;6.736;2023-12-28T03:12:28;4.40;;;2.43;;
59998;SDS011;45859;51.378;6.736;2023-12-28T03:14:54;4.40;;;1.37;;
59998;SDS011;45859;51.378;6.736;2023-12-28T03:17:20;2.30;;;0.83;;
59998;SDS011;45859;51.378;6.736;2023-12-28T03:19:46;3.13;;;2.10;;
59998;SDS011;45859;51.378;6.736;2023-12-28T03:22:12;1.53;;;1.20;;
59998;SDS011;45859;51.378;6.736;2023-12-28T03:24:38;0.97;;;0.83;;
59998;SDS011;45859;51.378;6.736;2023-12-28T03:27:05;3.47;;;2.60;;
59998;SDS011;45859;51.378;6.736;2023-12-28T03:29:31;5.47;;;2.70;;
59998;SDS011;45859;51.378;6.736;2023-12-28T03:31:57;6.40;;;2.80;;
59998;SDS011;45859;51.378;6.736;2023-12-28T03:34:24;6.93;;;2.70;;
59998;SDS011;45859;51.378;6.736;2023-12-28T03:36:51;3.33;;;2.60;;
59998;SDS011;45859;51.378;6.736;2023-12-28T03:39:18;3.50;;;2.60;;
59998;SDS011;45859;51.378;6.736;2023-12-28T03:41:44;1.63;;;1.30;;
59998;SDS011;45859;51.378;6.736;2023-12-28T03:44:10;4.27;;;2.67;;
59998;SDS011;45859;51.378;6.736;2023-12-28T03:46:35;4.10;;;2.53;;
59998;SDS011;45859;51.378;6.736;2023-12-28T03:49:01;3.03;;;2.70;;
59998;SDS011;45859;51.378;6.736;2023-12-28T03:51:27;3.37;;;2.77;;
59998;SDS011;45859;51.378;6.736;2023-12-28T03:53:53;4.00;;;2.60;;
59998;SDS011;45859;51.378;6.736;2023-12-28T03:56:20;4.47;;;2.53;;
59998;SDS011;45859;51.378;6.736;2023-12-28T03:58:47;0.90;;;0.57;;
59998;SDS011;45859;51.378;6.736;2023-12-28T04:01:12;2.70;;;2.40;;
59998;SDS011;45859;51.378;6.736;2023-12-28T04:03:38;2.67;;;2.30;;
59998;SDS011;45859;51.378;6.736;2023-12-28T04:06:04;4.40;;;2.60;;
59998;SDS011;45859;51.378;6.736;2023-12-28T04:08:30;4.67;;;2.50;;
59998;SDS011;45859;51.378;6.736;2023-12-28T04:10:57;2.80;;;2.40;;
59998;SDS011;45859;51.378;6.736;2023-12-28T04:13:22;2.40;;;2.20;;
59998;SDS011;45859;51.378;6.736;2023-12-28T04:15:48;1.73;;;0.90;;
59998;SDS011;45859;51.378;6.736;2023-12-28T04:18:14;3.13;;;2.30;;
59998;SDS011;45859;51.378;6.736;2023-12-28T04:20:42;3.67;;;2.63;;
59998;SDS011;45859;51.378;6.736;2023-12-28T04:23:09;3.63;;;2.17;;
59998;SDS011;45859;51.378;6.736;2023-12-28T04:25:35;3.60;;;2.70;;
59998;SDS011;45859;51.378;6.736;2023-12-28T04:28:01;3.10;;;2.73;;
59998;SDS011;45859;51.378;6.736;2023-12-28T04:30:27;2.83;;;2.20;;
59998;SDS011;45859;51.378;6.736;2023-12-28T04:32:53;4.50;;;2.73;;
59998;SDS011;45859;51.378;6.736;2023-12-28T04:35:19;0.97;;;0.80;;
59998;SDS011;45859;51.378;6.736;2023-12-28T04:37:45;0.87;;;0.80;;
59998;SDS011;45859;51.378;6.736;2023-12-28T04:40:11;1.17;;;0.83;;
59998;SDS011;45859;51.378;6.736;2023-12-28T04:42:39;5.83;;;2.40;;
59998;SDS011;45859;51.378;6.736;2023-12-28T04:45:05;3.00;;;2.30;;
59998;SDS011;45859;51.378;6.736;2023-12-28T04:47:32;3.80;;;2.50;;
59998;SDS011;45859;51.378;6.736;2023-12-28T04:49:58;4.80;;;2.37;;
59998;SDS011;45859;51.378;6.736;2023-12-28T04:52:23;4.23;;;2.40;;
59998;SDS011;45859;51.378;6.736;2023-12-28T04:54:52;3.90;;;2.27;;
59998;SDS011;45859;51.378;6.736;2023-12-28T04:57:18;1.43;;;0.57;;
59998;SDS011;45859;51.378;6.736;2023-12-28T04:59:44;3.17;;;2.17;;
59998;SDS011;45859;51.378;6.736;2023-12-28T05:02:10;3.27;;;2.40;;
59998;SDS011;45859;51.378;6.736;2023-12-28T05:04:39;5.23;;;2.10;;
59998;SDS011;45859;51.378;6.736;2023-12-28T05:07:04;4.53;;;1.83;;
59998;SDS011;45859;51.378;6.736;2023-12-28T05:09:30;2.93;;;2.13;;
59998;SDS011;45859;51.378;6.736;2023-12-28T05:11:56;0.90;;;0.60;;
59998;SDS011;45859;51.378;6.736;2023-12-28T05:14:22;2.60;;;2.07;;
59998;SDS011;45859;51.378;6.736;2023-12-28T05:16:49;3.00;;;1.90;;
59998;SDS011;45859;51.378;6.736;2023-12-28T05:19:14;3.63;;;1.97;;
59998;SDS011;45859;51.378;6.736;2023-12-28T05:21:40;3.17;;;2.27;;
59998;SDS011;45859;51.378;6.736;2023-12-28T05:24:06;3.93;;;2.10;;
59998;SDS011;45859;51.378;6.736;2023-12-28T05:26:33;4.20;;;1.90;;
59998;SDS011;45859;51.378;6.736;2023-12-28T05:28:59;3.30;;;2.10;;
59998;SDS011;45859;51.378;6.736;2023-12-28T05:31:24;4.67;;;2.17;;
59998;SDS011;45859;51.378;6.736;2023-12-28T05:33:50;3.77;;;2.23;;
59998;SDS011;45859;51.378;6.736;2023-12-28T05:36:15;3.70;;;2.10;;
59998;SDS011;45859;51.378;6.736;2023-12-28T05:38:41;4.70;;;2.10;;
59998;SDS011;45859;51.378;6.736;2023-12-28T05:41:09;6.10;;;2.20;;
59998;SDS011;45859;51.378;6.736;2023-12-28T05:43:36;5.90;;;2.10;;
59998;SDS011;45859;51.378;6.736;2023-12-28T05:46:02;4.70;;;2.10;;
59998;SDS011;45859;51.378;6.736;2023-12-28T05:48:27;0.57;;;0.57;;
59998;SDS011;45859;51.378;6.736;2023-12-28T05:50:53;1.90;;;0.83;;
59998;SDS011;45859;51.378;6.736;2023-12-28T05:53:19;3.60;;;1.03;;
59998;SDS011;45859;51.378;6.736;2023-12-28T05:55:45;1.67;;;0.73;;
59998;SDS011;45859;51.378;6.736;2023-12-28T05:58:11;2.00;;;0.83;;
59998;SDS011;45859;51.378;6.736;2023-12-28T06:00:37;2.90;;;0.83;;
59998;SDS011;45859;51.378;6.736;2023-12-28T06:03:04;3.90;;;1.80;;
59998;SDS011;45859;51.378;6.736;2023-12-28T06:08:06;0.93;;;0.60;;
59998;SDS011;45859;51.378;6.736;2023-12-28T06:10:32;7.40;;;2.33;;
59998;SDS011;45859;51.378;6.736;2023-12-28T06:12:57;5.60;;;1.97;;
59998;SDS011;45859;51.378;6.736;2023-12-28T06:15:23;4.77;;;2.10;;
59998;SDS011;45859;51.378;6.736;2023-12-28T06:17:49;6.33;;;2.40;;
59998;SDS011;45859;51.378;6.736;2023-12-28T06:20:15;4.10;;;2.17;;
59998;SDS011;45859;51.378;6.736;2023-12-28T06:22:41;3.57;;;1.90;;
59998;SDS011;45859;51.378;6.736;2023-12-28T06:25:07;5.90;;;1.80;;
59998;SDS011;45859;51.378;6.736;2023-12-28T06:27:34;4.00;;;1.90;;
59998;SDS011;45859;51.378;6.736;2023-12-28T06:30:00;2.83;;;1.90;;
59998;SDS011;45859;51.378;6.736;2023-12-28T06:32:25;3.10;;;0.93;;
59998;SDS011;45859;51.378;6.736;2023-12-28T06:34:51;4.87;;;2.13;;
59998;SDS011;45859;51.378;6.736;2023-12-28T06:37:17;2.87;;;0.93;;
59998;SDS011;45859;51.378;6.736;2023-12-28T06:39:43;2.87;;;0.87;;
59998;SDS011;45859;51.378;6.736;2023-12-28T06:42:09;2.53;;;0.67;;
59998;SDS011;45859;51.378;6.736;2023-12-28T06:44:35;3.57;;;1.90;;
59998;SDS011;45859;51.378;6.736;2023-12-28T06:47:01;6.30;;;2.00;;
59998;SDS011;45859;51.378;6.736;2023-12-28T06:49:27;3.90;;;1.93;;
59998;SDS011;45859;51.378;6.736;2023-12-28T06:51:52;4.20;;;2.47;;
59998;SDS011;45859;51.378;6.736;2023-12-28T06:54:18;5.93;;;2.03;;
59998;SDS011;45859;51.378;6.736;2023-12-28T06:56:44;5.30;;;2.10;;
59998;SDS011;45859;51.378;6.736;2023-12-28T06:59:10;4.57;;;2.00;;
59998;SDS011;45859;51.378;6.736;2023-12-28T07:01:40;4.83;;;2.00;;
59998;SDS011;45859;51.378;6.736;2023-12-28T07:04:06;1.90;;;0.70;;
59998;SDS011;45859;51.378;6.736;2023-12-28T07:06:32;4.67;;;1.67;;
59998;SDS011;45859;51.378;6.736;2023-12-28T07:08:57;4.33;;;2.27;;
59998;SDS011;45859;51.378;6.736;2023-12-28T07:11:23;3.70;;;1.70;;
59998;SDS011;45859;51.378;6.736;2023-12-28T07:13:49;6.53;;;2.10;;
59998;SDS011;45859;51.378;6.736;2023-12-28T07:16:15;4.80;;;1.77;;
59998;SDS011;45859;51.378;6.736;2023-12-28T07:18:41;5.50;;;1.80;;
59998;SDS011;45859;51.378;6.736;2023-12-28T07:21:07;4.93;;;1.77;;
59998;SDS011;45859;51.378;6.736;2023-12-28T07:23:34;4.43;;;2.07;;
59998;SDS011;45859;51.378;6.736;2023-12-28T07:26:00;5.33;;;1.63;;
59998;SDS011;45859;51.378;6.736;2023-12-28T07:28:26;4.43;;;1.80;;
59998;SDS011;45859;51.378;6.736;2023-12-28T07:30:52;4.23;;;2.10;;
59998;SDS011;45859;51.378;6.736;2023-12-28T07:33:18;10.70;;;2.47;;
59998;SDS011;45859;51.378;6.736;2023-12-28T07:35:44;4.90;;;2.20;;
59998;SDS011;45859;51.378;6.736;2023-12-28T07:38:10;5.20;;;1.83;;
59998;SDS011;45859;51.378;6.736;2023-12-28T07:40:36;4.43;;;1.97;;
59998;SDS011;45859;51.378;6.736;2023-12-28T07:43:02;3.50;;;2.00;;
59998;SDS011;45859;51.378;6.736;2023-12-28T07:45:28;6.27;;;2.07;;
59998;SDS011;45859;51.378;6.736;2023-12-28T07:47:54;6.20;;;2.27;;
59998;SDS011;45859;51.378;6.736;2023-12-28T07:50:20;3.90;;;1.80;;
59998;SDS011;45859;51.378;6.736;2023-12-28T07:52:46;7.13;;;2.07;;
59998;SDS011;45859;51.378;6.736;2023-12-28T07:55:12;6.00;;;1.97;;
59998;SDS011;45859;51.378;6.736;2023-12-28T07:57:38;7.70;;;2.37;;
59998;SDS011;45859;51.378;6.736;2023-12-28T08:00:04;9.03;;;2.40;;
59998;SDS011;45859;51.378;6.736;2023-12-28T08:02:30;10.50;;;2.60;;
59998;SDS011;45859;51.378;6.736;2023-12-28T08:04:56;7.10;;;2.30;;
59998;SDS011;45859;51.378;6.736;2023-12-28T08:07:22;8.00;;;2.20;;
59998;SDS011;45859;51.378;6.736;2023-12-28T08:09:48;5.33;;;2.17;;
59998;SDS011;45859;51.378;6.736;2023-12-28T08:12:14;6.47;;;2.33;;
59998;SDS011;45859;51.378;6.736;2023-12-28T08:14:39;5.87;;;2.47;;
59998;SDS011;45859;51.378;6.736;2023-12-28T08:17:05;7.47;;;2.30;;
59998;SDS011;45859;51.378;6.736;2023-12-28T08:19:32;7.07;;;2.13;;
59998;SDS011;45859;51.378;6.736;2023-12-28T08:21:57;5.37;;;2.00;;
59998;SDS011;45859;51.378;6.736;2023-12-28T08:24:23;6.63;;;2.30;;
59998;SDS011;45859;51.378;6.736;2023-12-28T08:26:49;7.67;;;2.23;;
59998;SDS011;45859;51.378;6.736;2023-12-28T08:29:15;5.47;;;2.03;;
59998;SDS011;45859;51.378;6.736;2023-12-28T08:31:40;8.53;;;2.30;;
59998;SDS011;45859;51.378;6.736;2023-12-28T08:34:06;3.27;;;0.90;;
59998;SDS011;45859;51.378;6.736;2023-12-28T08:36:32;5.20;;;2.00;;
59998;SDS011;45859;51.378;6.736;2023-12-28T08:38:58;5.70;;;2.10;;
59998;SDS011;45859;51.378;6.736;2023-12-28T08:41:24;7.93;;;2.10;;
59998;SDS011;45859;51.378;6.736;2023-12-28T08:43:50;4.90;;;1.80;;
59998;SDS011;45859;51.378;6.736;2023-12-28T08:46:17;7.30;;;2.00;;
59998;SDS011;45859;51.378;6.736;2023-12-28T08:48:43;8.97;;;2.50;;
59998;SDS011;45859;51.378;6.736;2023-12-28T08:51:09;8.13;;;1.87;;
59998;SDS011;45859;51.378;6.736;2023-12-28T08:53:36;7.97;;;2.00;;
59998;SDS011;45859;51.378;6.736;2023-12-28T08:56:02;5.57;;;2.20;;
59998;SDS011;45859;51.378;6.736;2023-12-28T08:58:28;8.20;;;2.20;;
59998;SDS011;45859;51.378;6.736;2023-12-28T09:00:54;8.23;;;2.07;;
59998;SDS011;45859;51.378;6.736;2023-12-28T09:03:20;10.93;;;2.60;;
59998;SDS011;45859;51.378;6.736;2023-12-28T09:05:46;8.40;;;1.80;;
59998;SDS011;45859;51.378;6.736;2023-12-28T09:08:12;6.73;;;2.13;;
59998;SDS011;45859;51.378;6.736;2023-12-28T09:10:38;7.77;;;2.27;;
59998;SDS011;45859;51.378;6.736;2023-12-28T09:13:06;9.37;;;2.47;;
59998;SDS011;45859;51.378;6.736;2023-12-28T09:15:31;7.53;;;2.17;;
59998;SDS011;45859;51.378;6.736;2023-12-28T09:17:57;8.30;;;2.40;;
59998;SDS011;45859;51.378;6.736;2023-12-28T09:20:23;6.73;;;2.27;;
59998;SDS011;45859;51.378;6.736;2023-12-28T09:22:49;6.20;;;2.03;;
59998;SDS011;45859;51.378;6.736;2023-12-28T09:25:21;8.30;;;2.37;;
59998;SDS011;45859;51.378;6.736;2023-12-28T09:27:46;8.27;;;1.90;;
59998;SDS011;45859;51.378;6.736;2023-12-28T09:30:13;8.67;;;2.37;;
59998;SDS011;45859;51.378;6.736;2023-12-28T09:32:39;12.60;;;2.43;;
59998;SDS011;45859;51.378;6.736;2023-12-28T09:35:05;7.10;;;2.20;;
59998;SDS011;45859;51.378;6.736;2023-12-28T09:37:31;9.60;;;2.37;;
59998;SDS011;45859;51.378;6.736;2023-12-28T09:39:56;9.57;;;2.10;;
59998;SDS011;45859;51.378;6.736;2023-12-28T09:42:25;8.67;;;2.40;;
59998;SDS011;45859;51.378;6.736;2023-12-28T09:44:54;8.90;;;1.87;;
59998;SDS011;45859;51.378;6.736;2023-12-28T09:47:20;11.10;;;2.47;;
59998;SDS011;45859;51.378;6.736;2023-12-28T09:49:47;9.53;;;2.13;;
59998;SDS011;45859;51.378;6.736;2023-12-28T09:52:12;10.67;;;2.50;;
59998;SDS011;45859;51.378;6.736;2023-12-28T09:54:38;6.40;;;2.60;;
59998;SDS011;45859;51.378;6.736;2023-12-28T09:57:05;8.13;;;2.50;;
59998;SDS011;45859;51.378;6.736;2023-12-28T09:59:31;7.13;;;2.43;;
59998;SDS011;45859;51.378;6.736;2023-12-28T10:01:58;10.43;;;3.00;;
59998;SDS011;45859;51.378;6.736;2023-12-28T10:04:26;8.20;;;2.33;;
59998;SDS011;45859;51.378;6.736;2023-12-28T10:06:54;7.10;;;2.03;;
59998;SDS011;45859;51.378;6.736;2023-12-28T10:09:20;6.70;;;2.00;;
59998;SDS011;45859;51.378;6.736;2023-12-28T10:11:46;9.07;;;2.23;;
59998;SDS011;45859;51.378;6.736;2023-12-28T10:14:12;11.23;;;2.73;;
59998;SDS011;45859;51.378;6.736;2023-12-28T10:16:41;10.13;;;2.20;;
59998;SDS011;45859;51.378;6.736;2023-12-28T10:19:07;6.77;;;2.30;;
59998;SDS011;45859;51.378;6.736;2023-12-28T10:21:33;8.90;;;2.30;;
59998;SDS011;45859;51.378;6.736;2023-12-28T10:23:59;8.90;;;2.00;;
59998;SDS011;45859;51.378;6.736;2023-12-28T10:26:27;9.83;;;2.43;;
59998;SDS011;45859;51.378;6.736;2023-12-28T10:28:57;8.00;;;2.20;;
59998;SDS011;45859;51.378;6.736;2023-12-28T10:31:27;8.10;;;2.70;;
59998;SDS011;45859;51.378;6.736;2023-12-28T10:33:53;8.10;;;2.53;;
59998;SDS011;45859;51.378;6.736;2023-12-28T10:36:19;6.67;;;2.40;;
59998;SDS011;45859;51.378;6.736;2023-12-28T10:38:46;7.70;;;2.07;;
59998;SDS011;45859;51.378;6.736;2023-12-28T10:41:14;9.30;;;1.97;;
59998;SDS011;45859;51.378;6.736;2023-12-28T10:43:45;8.03;;;1.87;;
59998;SDS011;45859;51.378;6.736;2023-12-28T10:46:25;8.27;;;2.47;;
59998;SDS011;45859;51.378;6.736;2023-12-28T10:51:42;7.87;;;2.10;;
59998;SDS011;45859;51.378;6.736;2023-12-28T10:56:58;6.33;;;2.00;;
59998;SDS011;45859;51.378;6.736;2023-12-28T10:59:30;9.63;;;2.13;;
59998;SDS011;45859;51.378;6.736;2023-12-28T11:02:07;7.77;;;1.97;;
59998;SDS011;45859;51.378;6.736;2023-12-28T11:04:44;8.43;;;2.10;;
59998;SDS011;45859;51.378;6.736;2023-12-28T11:07:14;6.20;;;1.87;;
59998;SDS011;45859;51.378;6.736;2023-12-28T11:09:42;7.80;;;2.17;;
59998;SDS011;45859;51.378;6.736;2023-12-28T11:12:08;9.83;;;2.30;;
59998;SDS011;45859;51.378;6.736;2023-12-28T11:14:41;11.70;;;2.20;;
59998;SDS011;45859;51.378;6.736;2023-12-28T11:17:07;8.90;;;1.97;;
59998;SDS011;45859;51.378;6.736;2023-12-28T11:19:35;11.47;;;2.53;;
59998;SDS011;45859;51.378;6.736;2023-12-28T11:22:02;8.23;;;2.20;;
59998;SDS011;45859;51.378;6.736;2023-12-28T11:24:29;8.10;;;2.03;;
59998;SDS011;45859;51.378;6.736;2023-12-28T11:26:56;8.33;;;2.20;;
59998;SDS011;45859;51.378;6.736;2023-12-28T11:29:22;9.70;;;2.27;;
59998;SDS011;45859;51.378;6.736;2023-12-28T11:31:55;5.73;;;1.93;;
59998;SDS011;45859;51.378;6.736;2023-12-28T11:34:27;14.90;;;2.47;;
59998;SDS011;45859;51.378;6.736;2023-12-28T11:36:57;9.03;;;2.47;;
59998;SDS011;45859;51.378;6.736;2023-12-28T11:42:00;10.53;;;2.57;;
59998;SDS011;45859;51.378;6.736;2023-12-28T11:44:28;8.17;;;1.80;;
59998;SDS011;45859;51.378;6.736;2023-12-28T11:46:54;8.73;;;2.40;;
59998;SDS011;45859;51.378;6.736;2023-12-28T11:49:25;12.43;;;2.80;;
59998;SDS011;45859;51.378;6.736;2023-12-28T11:51:56;7.30;;;1.90;;
59998;SDS011;45859;51.378;6.736;2023-12-28T11:54:23;7.10;;;2.28;;
59998;SDS011;45859;51.378;6.736;2023-12-28T11:56:49;7.47;;;2.13;;
59998;SDS011;45859;51.378;6.736;2023-12-28T11:59:15;10.97;;;2.43;;
59998;SDS011;45859;51.378;6.736;2023-12-28T12:01:41;10.93;;;2.33;;
59998;SDS011;45859;51.378;6.736;2023-12-28T12:04:07;12.13;;;2.60;;
59998;SDS011;45859;51.378;6.736;2023-12-28T12:06:32;9.00;;;2.23;;
59998;SDS011;45859;51.378;6.736;2023-12-28T12:08:58;8.30;;;2.43;;
59998;SDS011;45859;51.378;6.736;2023-12-28T12:11:24;9.83;;;3.20;;
59998;SDS011;45859;51.378;6.736;2023-12-28T12:13:53;6.03;;;1.70;;
59998;SDS011;45859;51.378;6.736;2023-12-28T12:16:20;8.43;;;2.40;;
59998;SDS011;45859;51.378;6.736;2023-12-28T12:18:45;10.07;;;2.37;;
59998;SDS011;45859;51.378;6.736;2023-12-28T12:21:11;8.77;;;2.37;;
59998;SDS011;45859;51.378;6.736;2023-12-28T12:26:05;13.43;;;2.20;;
59998;SDS011;45859;51.378;6.736;2023-12-28T12:28:31;12.53;;;2.67;;
59998;SDS011;45859;51.378;6.736;2023-12-28T12:30:58;14.60;;;2.40;;
59998;SDS011;45859;51.378;6.736;2023-12-28T12:33:26;9.20;;;2.33;;
59998;SDS011;45859;51.378;6.736;2023-12-28T12:35:53;10.37;;;2.70;;
59998;SDS011;45859;51.378;6.736;2023-12-28T12:38:19;8.83;;;2.10;;
59998;SDS011;45859;51.378;6.736;2023-12-28T12:40:45;8.80;;;2.07;;
59998;SDS011;45859;51.378;6.736;2023-12-28T12:43:11;9.83;;;2.13;;
59998;SDS011;45859;51.378;6.736;2023-12-28T12:45:37;12.57;;;2.17;;
59998;SDS011;45859;51.378;6.736;2023-12-28T12:48:07;10.87;;;2.27;;
59998;SDS011;45859;51.378;6.736;2023-12-28T12:50:33;6.40;;;1.80;;
59998;SDS011;45859;51.378;6.736;2023-12-28T12:52:59;9.83;;;2.20;;
59998;SDS011;45859;51.378;6.736;2023-12-28T12:55:25;10.93;;;2.70;;
59998;SDS011;45859;51.378;6.736;2023-12-28T12:57:51;10.43;;;2.50;;
59998;SDS011;45859;51.378;6.736;2023-12-28T13:00:20;7.93;;;2.73;;
59998;SDS011;45859;51.378;6.736;2023-12-28T13:02:47;8.93;;;2.03;;
59998;SDS011;45859;51.378;6.736;2023-12-28T13:05:14;14.87;;;2.60;;
59998;SDS011;45859;51.378;6.736;2023-12-28T13:07:40;7.60;;;1.73;;
59998;SDS011;45859;51.378;6.736;2023-12-28T13:10:06;10.40;;;2.67;;
59998;SDS011;45859;51.378;6.736;2023-12-28T13:12:35;6.77;;;1.80;;
59998;SDS011;45859;51.378;6.736;2023-12-28T13:15:02;11.77;;;2.67;;
59998;SDS011;45859;51.378;6.736;2023-12-28T13:17:28;7.40;;;1.90;;
59998;SDS011;45859;51.378;6.736;2023-12-28T13:19:54;11.53;;;3.03;;
59998;SDS011;45859;51.378;6.736;2023-12-28T13:22:20;7.37;;;1.90;;
59998;SDS011;45859;51.378;6.736;2023-12-28T13:24:46;9.97;;;2.77;;
59998;SDS011;45859;51.378;6.736;2023-12-28T13:27:12;8.07;;;1.97;;
59998;SDS011;45859;51.378;6.736;2023-12-28T13:29:41;12.07;;;2.80;;
59998;SDS011;45859;51.378;6.736;2023-12-28T13:32:08;9.97;;;2.27;;
59998;SDS011;45859;51.378;6.736;2023-12-28T13:34:51;9.73;;;2.40;;
59998;SDS011;45859;51.378;6.736;2023-12-28T13:37:17;8.40;;;1.93;;
59998;SDS011;45859;51.378;6.736;2023-12-28T13:39:43;8.30;;;2.27;;
59998;SDS011;45859;51.378;6.736;2023-12-28T13:42:09;6.97;;;2.73;;
59998;SDS011;45859;51.378;6.736;2023-12-28T13:44:35;9.33;;;2.00;;
59998;SDS011;45859;51.378;6.736;2023-12-28T13:47:02;8.73;;;2.37;;
59998;SDS011;45859;51.378;6.736;2023-12-28T13:49:31;11.47;;;2.60;;
59998;SDS011;45859;51.378;6.736;2023-12-28T13:51:57;9.40;;;2.60;;
59998;SDS011;45859;51.378;6.736;2023-12-28T13:54:26;9.57;;;2.53;;
59998;SDS011;45859;51.378;6.736;2023-12-28T13:56:59;6.73;;;2.00;;
59998;SDS011;45859;51.378;6.736;2023-12-28T13:59:28;6.97;;;2.10;;
59998;SDS011;45859;51.378;6.736;2023-12-28T14:02:00;7.03;;;2.57;;
59998;SDS011;45859;51.378;6.736;2023-12-28T14:04:41;7.33;;;2.30;;
59998;SDS011;45859;51.378;6.736;2023-12-28T14:07:29;5.87;;;2.10;;
59998;SDS011;45859;51.378;6.736;2023-12-28T14:10:29;8.60;;;2.17;;
59998;SDS011;45859;51.378;6.736;2023-12-28T14:12:57;13.10;;;2.20;;
59998;SDS011;45859;51.378;6.736;2023-12-28T14:15:23;6.67;;;1.83;;
59998;SDS011;45859;51.378;6.736;2023-12-28T14:17:49;7.10;;;2.00;;
59998;SDS011;45859;51.378;6.736;2023-12-28T14:20:15;7.50;;;1.93;;
59998;SDS011;45859;51.378;6.736;2023-12-28T14:25:45;7.90;;;1.57;;
59998;SDS011;45859;51.378;6.736;2023-12-28T14:28:16;9.27;;;2.57;;
59998;SDS011;45859;51.378;6.736;2023-12-28T14:30:43;8.20;;;1.77;;
59998;SDS011;45859;51.378;6.736;2023-12-28T14:33:18;8.50;;;2.27;;
59998;SDS011;45859;51.378;6.736;2023-12-28T14:35:45;9.20;;;1.97;;
59998;SDS011;45859;51.378;6.736;2023-12-28T14:38:14;9.50;;;2.10;;
59998;SDS011;45859;51.378;6.736;2023-12-28T14:40:40;7.10;;;1.87;;
59998;SDS011;45859;51.378;6.736;2023-12-28T14:43:06;7.37;;;2.40;;
59998;SDS011;45859;51.378;6.736;2023-12-28T14:45:31;9.20;;;1.90;;
59998;SDS011;45859;51.378;6.736;2023-12-28T14:47:57;7.13;;;1.90;;
59998;SDS011;45859;51.378;6.736;2023-12-28T14:50:23;5.33;;;1.53;;
59998;SDS011;45859;51.378;6.736;2023-12-28T14:52:49;5.30;;;2.27;;
59998;SDS011;45859;51.378;6.736;2023-12-28T14:55:15;8.83;;;2.43;;
59998;SDS011;45859;51.378;6.736;2023-12-28T14:57:41;6.43;;;2.10;;
59998;SDS011;45859;51.378;6.736;2023-12-28T15:00:13;8.43;;;2.10;;
59998;SDS011;45859;51.378;6.736;2023-12-28T15:02:45;6.50;;;2.07;;
59998;SDS011;45859;51.378;6.736;2023-12-28T15:05:11;9.00;;;1.77;;
59998;SDS011;45859;51.378;6.736;2023-12-28T15:07:38;13.17;;;2.00;;